Time;durP1;ratioP1;P1;durP2;ratioP2;P2;SDS_P1;SDS_P2;PMS_P1;PMS_P2;Temp;Humidity;BMP_temperature;BMP_pressure;BME280_temperature;BME280_humidity;BME280_pressure;Samples;Min_cycle;Max_cycle;Signal;HPM_P1;HPM_P2
2023/03/18 00:00:19;;;;;;;11.50;6.53;;;;;;;5.82;36.03;100270.69;7710275;32;39115;-83
2023/03/18 00:04:36;;;;;;;11.23;6.35;;;;;;;5.88;35.81;100267.06;7711069;32;39708;-83
2023/03/18 00:08:52;;;;;;;14.20;6.97;;;;;;;5.92;35.63;100265.53;7710969;32;37682;-83
2023/03/18 00:13:09;;;;;;;11.43;6.05;;;;;;;5.89;35.54;100259.78;7711168;32;37378;-83
2023/03/18 00:17:25;;;;;;;16.77;5.93;;;;;;;5.78;35.75;100250.56;7711039;32;39879;-83
2023/03/18 00:21:42;;;;;;;11.60;6.78;;;;;;;5.86;35.55;100255.62;7711031;32;40678;-83
2023/03/18 00:26:00;;;;;;;10.13;5.90;;;;;;;5.76;35.60;100250.78;7710898;32;37801;-81
2023/03/18 00:30:17;;;;;;;10.15;6.62;;;;;;;5.58;35.85;100251.63;7711086;32;37718;-83
2023/03/18 00:34:33;;;;;;;10.95;6.18;;;;;;;5.59;36.05;100252.47;7710836;32;39367;-83
2023/03/18 00:38:50;;;;;;;14.68;6.75;;;;;;;5.64;35.96;100250.72;7710827;32;39919;-83
2023/03/18 00:43:07;;;;;;;12.68;6.18;;;;;;;5.76;35.82;100249.94;7710534;32;37912;-83
2023/03/18 00:47:23;;;;;;;12.85;6.87;;;;;;;5.64;35.78;100242.59;7710635;32;37106;-83
2023/03/18 00:51:43;;;;;;;11.23;6.03;;;;;;;5.51;36.12;100237.37;7710172;32;39313;-84
2023/03/18 00:55:59;;;;;;;11.30;5.85;;;;;;;5.41;36.32;100237.06;7710239;32;39919;-84
2023/03/18 01:00:16;;;;;;;14.82;6.62;;;;;;;5.50;36.29;100230.28;7710431;32;37857;-83
2023/03/18 01:04:32;;;;;;;13.55;6.12;;;;;;;5.44;36.46;100223.91;7710418;32;37149;-83
2023/03/18 01:08:50;;;;;;;12.55;6.53;;;;;;;5.48;36.44;100218.88;7709619;32;39427;-83
2023/03/18 01:13:06;;;;;;;14.68;7.05;;;;;;;5.39;36.52;100217.56;7696635;32;40014;-83
2023/03/18 01:17:23;;;;;;;13.62;6.25;;;;;;;5.41;36.62;100204.62;7709610;32;37917;-83
2023/03/18 01:21:39;;;;;;;12.75;6.35;;;;;;;5.32;36.94;100197.88;7710149;32;37895;-83
2023/03/18 01:25:56;;;;;;;13.48;6.70;;;;;;;5.20;37.07;100187.81;7709785;32;40102;-83
2023/03/18 01:30:13;;;;;;;13.68;7.10;;;;;;;5.24;37.12;100183.63;7709732;32;40869;-84
2023/03/18 01:34:29;;;;;;;13.50;6.70;;;;;;;5.29;37.12;100174.81;7709429;32;37427;-84
2023/03/18 01:38:47;;;;;;;16.27;6.50;;;;;;;5.19;37.10;100175.38;7709608;32;37432;-84
2023/03/18 01:43:16;;;;;;;15.15;6.87;;;;;;;5.33;36.51;100167.91;7709510;32;39488;-83
2023/03/18 01:47:33;;;;;;;18.45;6.55;;;;;;;5.30;36.59;100170.25;7709116;32;40391;-84
2023/03/18 01:51:55;;;;;;;15.07;7.10;;;;;;;5.27;36.59;100172.34;7709249;32;38049;-83
2023/03/18 01:56:12;;;;;;;10.45;6.43;;;;;;;5.32;36.36;100162.75;7695986;32;37109;-83
2023/03/18 02:00:28;;;;;;;20.73;7.12;;;;;;;5.36;36.33;100163.91;7708905;32;39271;-83
2023/03/18 02:04:49;;;;;;;13.57;7.22;;;;;;;5.39;36.19;100155.37;7695466;32;40916;-83
2023/03/18 02:09:06;;;;;;;17.20;7.07;;;;;;;5.29;36.36;100166.72;7709030;32;38756;-83
2023/03/18 02:13:23;;;;;;;19.10;8.10;;;;;;;5.16;36.45;100165.00;7708894;32;37658;-83
2023/03/18 02:17:44;;;;;;;14.70;7.60;;;;;;;4.87;36.65;100167.41;7707844;32;39520;-83
2023/03/18 02:22:23;;;;;;;15.95;7.20;;;;;;;5.09;36.49;100169.69;7696256;32;39735;-83
2023/03/18 02:26:50;;;;;;;12.90;6.82;;;;;;;5.12;36.82;100169.19;7712063;32;38645;-83
2023/03/18 02:31:10;;;;;;;13.35;6.78;;;;;;;5.01;37.24;100168.09;7712494;32;37087;-82
2023/03/18 02:35:28;;;;;;;16.60;7.35;;;;;;;4.88;37.20;100173.63;7698980;32;40084;-83
2023/03/18 02:39:44;;;;;;;13.23;7.47;;;;;;;5.12;36.54;100166.50;7698726;32;39934;-83
2023/03/18 02:44:01;;;;;;;12.48;6.75;;;;;;;5.15;36.28;100166.06;7712057;32;37972;-83
2023/03/18 02:48:19;;;;;;;12.98;7.28;;;;;;;5.12;36.10;100173.78;7712230;32;37320;-84
2023/03/18 02:52:35;;;;;;;12.55;7.07;;;;;;;5.03;35.84;100171.38;7712335;32;38270;-83
2023/03/18 02:56:52;;;;;;;12.37;6.95;;;;;;;5.10;35.78;100168.59;7711888;32;39938;-84
2023/03/18 03:01:09;;;;;;;15.60;6.68;;;;;;;5.24;35.57;100164.72;7711944;32;38371;-83
2023/03/18 03:05:25;;;;;;;12.27;6.85;;;;;;;5.23;35.37;100168.44;7698127;32;37550;-84
2023/03/18 03:09:41;;;;;;;14.50;7.03;;;;;;;5.21;35.55;100159.75;7711977;32;40323;-83
2023/03/18 03:13:58;;;;;;;13.30;6.97;;;;;;;5.17;35.23;100166.66;7711842;32;40798;-84
2023/03/18 03:18:15;;;;;;;13.02;7.00;;;;;;;4.97;35.61;100174.19;7711471;32;37668;-82
2023/03/18 03:22:33;;;;;;;11.80;6.32;;;;;;;4.81;35.72;100173.72;7711768;32;37097;-84
2023/03/18 03:26:49;;;;;;;14.55;6.30;;;;;;;4.76;35.95;100172.72;7943491;26;40250;-84
2023/03/18 03:31:05;;;;;;;13.23;6.78;;;;;;;5.03;35.18;100170.56;7737064;32;38770;-83
2023/03/18 03:35:23;;;;;;;12.25;6.90;;;;;;;4.88;35.39;100176.34;7732736;32;37729;-84
2023/03/18 03:39:39;;;;;;;15.90;6.87;;;;;;;4.69;35.67;100168.25;7711339;32;37969;-83
2023/03/18 03:43:55;;;;;;;16.60;8.07;;;;;;;4.69;35.71;100180.91;7711612;32;39110;-84
2023/03/18 03:48:12;;;;;;;13.75;7.10;;;;;;;4.40;35.35;100188.66;7734548;32;40272;-83
2023/03/18 03:52:29;;;;;;;20.02;7.75;;;;;;;4.82;34.89;100193.47;7738223;32;38721;-83
2023/03/18 03:56:45;;;;;;;16.50;8.35;;;;;;;4.47;35.15;100194.84;7724055;32;38082;-83
2023/03/18 04:01:03;;;;;;;16.45;8.07;;;;;;;4.77;34.99;100186.03;7711442;32;39381;-83
2023/03/18 04:05:23;;;;;;;11.82;6.12;;;;;;;4.70;34.73;100190.66;7715877;32;39974;-83
2023/03/18 04:09:40;;;;;;;10.25;5.87;;;;;;;4.64;35.29;100187.00;7738104;32;38656;-83
2023/03/18 04:13:56;;;;;;;13.32;6.40;;;;;;;4.88;34.99;100188.00;7738066;32;37196;-84
2023/03/18 04:18:13;;;;;;;12.07;6.65;;;;;;;4.77;35.26;100194.13;7714863;32;40136;-83
2023/03/18 04:22:30;;;;;;;13.10;6.15;;;;;;;4.63;35.58;100201.53;7711099;32;39896;-83
2023/03/18 04:26:47;;;;;;;11.73;5.80;;;;;;;4.55;35.37;100195.59;7724362;32;38617;-83
2023/03/18 04:31:03;;;;;;;11.27;6.20;;;;;;;4.55;35.97;100212.63;7737868;32;35496;-83
2023/03/18 04:35:22;;;;;;;13.13;6.72;;;;;;;4.97;35.26;100212.03;7733253;32;40097;-83
2023/03/18 04:39:38;;;;;;;14.55;6.78;;;;;;;4.77;35.72;100198.72;7726163;32;39149;-83
2023/03/18 04:43:54;;;;;;;12.52;6.00;;;;;;;4.85;35.79;100207.34;7736712;32;37965;-83
2023/03/18 04:48:10;;;;;;;16.17;7.25;;;;;;;4.64;36.16;100215.84;7736566;32;36894;-83
2023/03/18 04:52:27;;;;;;;14.57;7.65;;;;;;;4.78;35.88;100206.59;7723141;32;39386;-83
2023/03/18 04:56:43;;;;;;;13.48;6.95;;;;;;;4.55;36.15;100217.19;7737378;32;40816;-84
2023/03/18 05:00:59;;;;;;;12.37;6.43;;;;;;;4.48;36.29;100212.69;7737262;32;37929;-83
2023/03/18 05:05:17;;;;;;;10.80;6.10;;;;;;;4.62;36.31;100217.97;7734515;32;38285;-83
2023/03/18 05:09:33;;;;;;;14.93;5.70;;;;;;;4.51;36.38;100222.22;7736998;32;40227;-83
2023/03/18 05:13:49;;;;;;;10.88;6.00;;;;;;;4.51;36.42;100223.03;7720812;32;39950;-83
2023/03/18 05:18:05;;;;;;;11.63;6.65;;;;;;;4.63;36.44;100225.84;7711633;32;37961;-84
2023/03/18 05:22:22;;;;;;;11.43;6.28;;;;;;;4.67;36.69;100231.62;7710732;32;37008;-84
2023/03/18 05:26:38;;;;;;;11.90;6.28;;;;;;;4.54;36.78;100237.97;7710062;32;39358;-84
2023/03/18 05:30:56;;;;;;;13.48;6.22;;;;;;;4.48;37.05;100238.84;7721981;32;40866;-83
2023/03/18 05:35:12;;;;;;;10.48;5.53;;;;;;;4.58;36.79;100246.47;7736800;32;37634;-83
2023/03/18 05:39:30;;;;;;;13.23;7.22;;;;;;;4.77;36.50;100247.34;7733017;32;37132;-83
2023/03/18 05:43:47;;;;;;;11.77;5.45;;;;;;;4.59;36.84;100253.50;7709805;32;39838;-84
2023/03/18 05:48:05;;;;;;;12.15;6.50;;;;;;;4.62;36.85;100251.22;7714365;32;41160;-83
2023/03/18 05:52:21;;;;;;;11.38;6.32;;;;;;;4.82;36.85;100255.59;7722813;32;38666;-82
2023/03/18 05:56:38;;;;;;;12.05;6.25;;;;;;;4.98;36.56;100254.19;7736988;32;37143;-83
2023/03/18 06:00:54;;;;;;;10.68;5.97;;;;;;;4.66;37.65;100262.41;7720145;32;39304;-83
2023/03/18 06:05:11;;;;;;;11.43;7.15;;;;;;;5.04;36.72;100256.00;7738011;32;40862;-83
2023/03/18 06:09:27;;;;;;;14.60;6.68;;;;;;;4.84;37.55;100259.72;7738556;32;37869;-82
2023/03/18 06:13:44;;;;;;;11.85;6.55;;;;;;;5.23;36.97;100257.66;7739199;32;37259;-84
2023/03/18 06:18:01;;;;;;;12.32;6.32;;;;;;;5.33;36.44;100261.69;7722810;32;40091;-82
2023/03/18 06:22:17;;;;;;;11.82;6.20;;;;;;;5.01;37.30;100259.16;7712695;32;39886;-83
2023/03/18 06:26:34;;;;;;;10.98;6.40;;;;;;;5.36;36.55;100269.38;7729859;32;38612;-83
2023/03/18 06:30:50;;;;;;;13.48;6.10;;;;;;;5.39;36.41;100272.44;7739281;32;36927;-83
2023/03/18 06:35:07;;;;;;;12.43;6.30;;;;;;;5.78;36.04;100273.03;7730652;32;39405;-83
2023/03/18 06:39:23;;;;;;;11.52;6.40;;;;;;;5.92;36.20;100270.16;7712386;32;40808;-83
2023/03/18 06:43:40;;;;;;;11.32;6.43;;;;;;;6.22;35.68;100275.56;7712388;32;38746;-82
2023/03/18 06:47:56;;;;;;;11.00;6.35;;;;;;;5.90;36.09;100278.50;7737275;32;36994;-84
2023/03/18 06:52:13;;;;;;;14.35;6.62;;;;;;;6.24;35.62;100292.38;7738255;32;40143;-85
2023/03/18 06:56:29;;;;;;;10.63;5.57;;;;;;;6.47;34.92;100290.81;7738864;32;40053;-84
2023/03/18 07:00:46;;;;;;;15.45;6.75;;;;;;;6.40;34.91;100290.94;7738548;32;37850;-82
2023/03/18 07:05:03;;;;;;;13.65;5.82;;;;;;;6.99;33.83;100285.56;7738829;32;37931;-84
2023/03/18 07:09:19;;;;;;;14.05;6.28;;;;;;;6.68;34.14;100292.16;7736963;32;40131;-84
2023/03/18 07:13:36;;;;;;;14.90;6.78;;;;;;;7.31;34.24;100277.87;7732622;32;41121;-77
2023/03/18 07:17:52;;;;;;;10.63;5.90;;;;;;;7.72;37.73;100277.91;7738733;32;37643;-86
2023/03/18 07:22:08;;;;;;;10.15;5.35;;;;;;;8.28;31.89;100275.44;7738502;32;37285;-85
2023/03/18 07:26:25;;;;;;;13.80;6.72;;;;;;;7.93;31.77;100275.56;7712310;32;39371;-86
2023/03/18 07:30:41;;;;;;;12.35;5.55;;;;;;;8.52;31.17;100281.56;7724655;32;39893;-86
2023/03/18 07:34:58;;;;;;;11.65;5.87;;;;;;;8.69;31.22;100283.47;7738600;32;37798;-87
2023/03/18 07:39:14;;;;;;;12.23;5.03;;;;;;;8.25;31.82;100292.22;7738713;32;37089;-86
2023/03/18 07:43:31;;;;;;;9.65;4.95;;;;;;;8.86;35.90;100286.19;7724840;32;40227;-86
2023/03/18 07:47:47;;;;;;;7.45;4.68;;;;;;;9.19;30.30;100277.13;7738495;32;40039;-77
2023/03/18 07:52:04;;;;;;;11.48;5.00;;;;;;;9.44;33.92;100286.75;7738382;32;39239;-86
2023/03/18 07:56:20;;;;;;;15.25;6.00;;;;;;;9.74;29.47;100287.13;7738449;32;37076;-86
2023/03/18 08:00:37;;;;;;;12.43;5.07;;;;;;;9.50;30.70;100286.56;7738395;32;40150;-86
2023/03/18 08:04:53;;;;;;;11.65;4.97;;;;;;;10.21;29.11;100284.87;7732808;32;176007;-85
2023/03/18 08:09:11;;;;;;;12.93;5.65;;;;;;;10.20;29.57;100285.97;7738165;32;38209;-85
2023/03/18 08:13:27;;;;;;;11.70;4.90;;;;;;;10.45;28.87;100294.44;7738112;32;36973;-84
2023/03/18 08:17:43;;;;;;;9.27;4.97;;;;;;;10.69;28.88;100297.66;7738099;32;39276;-85
2023/03/18 08:22:00;;;;;;;9.50;5.53;;;;;;;10.47;29.12;100299.62;7736901;32;39738;-85
2023/03/18 08:26:16;;;;;;;10.27;4.62;;;;;;;10.70;29.02;100293.81;7724178;32;38464;-86
2023/03/18 08:30:33;;;;;;;10.95;5.40;;;;;;;9.90;30.26;100292.72;7737831;32;37115;-86
2023/03/18 08:34:50;;;;;;;9.80;5.18;;;;;;;10.57;28.53;100293.44;7737947;32;39911;-77
2023/03/18 08:39:07;;;;;;;10.40;5.07;;;;;;;11.20;29.24;100288.19;7737850;32;39984;-83
2023/03/18 08:43:24;;;;;;;9.27;4.62;;;;;;;11.54;28.09;100285.91;7737589;32;38658;-86
2023/03/18 08:47:40;;;;;;;83.05;34.83;;;;;;;11.52;27.91;100279.91;7737691;32;37269;-86
2023/03/18 08:51:57;;;;;;;33.97;15.52;;;;;;;11.52;27.85;100270.87;7737523;32;40116;-86
2023/03/18 08:56:14;;;;;;;9.98;4.15;;;;;;;11.89;26.92;100281.66;7737529;32;40932;-85
2023/03/18 09:00:31;;;;;;;10.70;4.70;;;;;;;12.03;27.06;100277.34;7737426;32;38537;-86
2023/03/18 09:04:48;;;;;;;7.65;3.90;;;;;;;12.09;27.20;100269.16;7737267;32;37882;-83
2023/03/18 09:09:04;;;;;;;12.85;3.92;;;;;;;12.48;25.33;100271.41;7737369;32;39301;-85
2023/03/18 09:13:21;;;;;;;19.37;8.20;;;;;;;12.64;25.66;100270.34;7737098;32;39961;-85
2023/03/18 09:17:39;;;;;;;27.02;12.07;;;;;;;12.80;25.64;100265.69;7710748;32;37941;-86
2023/03/18 09:22:17;;;;;;;15.57;6.70;;;;;;;12.77;25.17;100269.75;7725088;32;38466;-85
2023/03/18 09:26:33;;;;;;;13.88;6.68;;;;;;;12.39;25.91;100257.47;7736755;32;39493;-85
2023/03/18 09:30:50;;;;;;;16.42;9.00;;;;;;;12.87;25.33;100263.47;7723575;32;39862;-85
2023/03/18 09:35:08;;;;;;;14.82;5.35;;;;;;;13.52;23.77;100258.13;7726209;32;38697;-85
2023/03/18 09:39:28;;;;;;;9.50;4.75;;;;;;;12.91;24.93;100242.66;7740045;32;37057;-85
2023/03/18 09:43:53;;;;;;;12.48;5.18;;;;;;;13.41;25.18;100250.25;7739988;32;39251;-86
2023/03/18 09:48:18;;;;;;;8.63;4.05;;;;;;;13.26;24.58;100235.47;7739942;32;39968;-77
2023/03/18 09:53:13;;;;;;;9.90;4.68;;;;;;;14.14;24.35;100241.34;7730166;32;38163;-76
2023/03/18 09:57:33;;;;;;;12.07;4.82;;;;;;;14.61;23.89;100234.44;7629700;32;37002;-75
2023/03/18 10:01:55;;;;;;;12.80;5.30;;;;;;;14.82;23.48;100234.25;7684256;32;39149;-76
2023/03/18 10:06:20;;;;;;;13.27;5.15;;;;;;;14.69;23.76;100241.22;7713104;32;40859;-78
2023/03/18 10:10:45;;;;;;;9.48;4.80;;;;;;;15.01;23.81;100224.19;7699276;32;37815;-75
2023/03/18 10:15:26;;;;;;;10.70;5.00;;;;;;;15.23;22.66;100220.09;7712650;32;38132;-76
2023/03/18 10:19:47;;;;;;;8.90;4.30;;;;;;;14.83;23.74;100216.66;7717989;32;38704;-75
2023/03/18 10:24:13;;;;;;;10.13;3.97;;;;;;;16.21;21.90;100207.81;7704500;32;40516;-80
2023/03/18 10:28:29;;;;;;;12.00;4.47;;;;;;;16.75;20.77;100200.84;7738690;32;37973;-77
2023/03/18 10:33:01;;;;;;;9.55;3.87;;;;;;;16.79;20.51;100196.34;7738542;32;37127;-76
2023/03/18 10:37:49;;;;;;;5.43;3.05;;;;;;;16.73;19.74;100196.75;7719063;32;40097;-75
2023/03/18 10:42:24;;;;;;;6.80;2.92;;;;;;;16.61;19.08;100195.31;7700880;32;39860;-71
2023/03/18 10:46:42;;;;;;;7.68;3.30;;;;;;;16.68;18.57;100187.47;7698947;32;38675;-85
2023/03/18 10:51:12;;;;;;;7.22;3.37;;;;;;;16.53;18.90;100177.53;7698847;32;36135;-85
2023/03/18 10:55:38;;;;;;;5.60;3.25;;;;;;;16.06;18.27;100182.19;7712356;32;39892;-85
2023/03/18 10:59:54;;;;;;;5.28;3.08;;;;;;;16.32;18.35;100179.03;7686769;32;39805;-85
2023/03/18 11:04:20;;;;;;;6.18;3.10;;;;;;;16.82;18.43;100172.91;7712197;32;38723;-86
2023/03/18 11:08:39;;;;;;;8.00;3.47;;;;;;;17.05;17.71;100160.09;7712143;32;36933;-86
2023/03/18 11:13:01;;;;;;;6.12;3.30;;;;;;;17.24;17.96;100160.78;7712144;32;39387;-86
2023/03/18 11:17:32;;;;;;;7.10;3.70;;;;;;;17.71;18.27;100154.28;7712096;32;40953;-87
2023/03/18 11:21:58;;;;;;;11.80;3.42;;;;;;;18.08;18.80;100150.41;7712067;32;37874;-86
2023/03/18 11:26:26;;;;;;;7.70;3.28;;;;;;;19.10;17.72;100138.59;7699580;32;36904;-86
2023/03/18 11:30:54;;;;;;;6.82;3.45;;;;;;;18.98;15.75;100129.31;7712124;32;40116;-86
2023/03/18 11:35:18;;;;;;;5.90;3.25;;;;;;;18.47;15.28;100137.84;7711839;32;40067;-76
2023/03/18 11:39:37;;;;;;;8.45;3.40;;;;;;;18.86;16.08;100118.87;7698324;32;38040;-77
2023/03/18 11:44:02;;;;;;;7.53;3.90;;;;;;;18.90;15.92;100117.09;7711856;32;36225;-75
2023/03/18 11:48:36;;;;;;;7.97;3.50;;;;;;;18.51;15.94;100121.47;7711718;32;40065;-86
2023/03/18 11:53:21;;;;;;;7.32;3.60;;;;;;;18.57;16.63;100123.78;7711507;32;40830;-86
2023/03/18 11:57:52;;;;;;;9.35;4.05;;;;;;;18.56;16.85;100118.56;7704871;32;37766;-87
2023/03/18 12:02:34;;;;;;;7.47;3.20;;;;;;;18.84;17.07;100118.37;7711643;32;37820;-86
2023/03/18 12:07:36;;;;;;;6.85;3.58;;;;;;;19.12;15.60;100107.88;7711589;32;39423;-85
2023/03/18 12:12:06;;;;;;;8.40;3.72;;;;;;;19.02;15.58;100103.47;7711233;32;40786;-85
2023/03/18 12:16:53;;;;;;;8.95;3.95;;;;;;;19.36;16.30;100099.16;7711214;32;38700;-86
2023/03/18 12:21:27;;;;;;;8.60;4.55;;;;;;;18.81;16.72;100094.94;7711296;32;37844;-86
2023/03/18 12:26:17;;;;;;;15.15;4.37;;;;;;;18.41;16.50;100102.41;7721111;32;39196;-85
2023/03/18 12:30:43;;;;;;;6.07;3.72;;;;;;;18.18;18.37;100096.94;7730036;32;39848;-85
2023/03/18 12:35:21;;;;;;;6.15;3.50;;;;;;;18.50;16.86;100078.41;7735661;32;38058;-85
2023/03/18 12:39:51;;;;;;;6.95;4.35;;;;;;;18.36;16.82;100087.59;7733895;32;37867;-84
2023/03/18 12:44:41;;;;;;;8.30;4.18;;;;;;;18.14;17.14;100079.34;7703889;32;39435;-75
2023/03/18 12:49:11;;;;;;;13.75;4.57;;;;;;;17.75;17.79;100083.63;7712315;32;40874;-74
2023/03/18 12:53:37;;;;;;;8.52;4.28;;;;;;;17.91;17.91;100090.41;7725951;32;38700;-86
2023/03/18 12:57:56;;;;;;;9.15;4.47;;;;;;;17.75;17.72;100095.44;7696812;32;37725;-84
2023/03/18 13:02:24;;;;;;;11.00;4.15;;;;;;;17.84;18.19;100088.06;7697099;32;39110;-85
2023/03/18 13:06:58;;;;;;;8.40;4.45;;;;;;;18.13;18.65;100089.59;7728796;32;39740;-86
2023/03/18 13:11:40;;;;;;;9.70;5.15;;;;;;;18.48;17.36;100089.75;7737096;32;37812;-86
2023/03/18 13:15:57;;;;;;;8.63;4.65;;;;;;;17.73;19.04;100085.84;7724361;32;37029;-86
2023/03/18 13:20:28;;;;;;;12.23;4.53;;;;;;;18.66;17.92;100079.62;7710240;32;40036;-88
2023/03/18 13:24:44;;;;;;;8.35;4.65;;;;;;;19.43;18.57;100071.03;7719073;32;40091;-87
2023/03/18 13:29:01;;;;;;;8.90;4.72;;;;;;;19.76;17.68;100070.56;7732456;32;38103;-88
2023/03/18 13:33:38;;;;;;;11.30;5.15;;;;;;;19.68;17.72;100073.00;7695970;32;37034;-87
2023/03/18 13:38:13;;;;;;;9.95;5.10;;;;;;;19.80;17.36;100066.84;7709991;32;39327;-85
2023/03/18 13:42:32;;;;;;;12.40;5.07;;;;;;;19.99;16.53;100068.41;7730733;32;40706;-84
2023/03/18 13:47:04;;;;;;;10.00;5.18;;;;;;;19.70;18.33;100050.53;7723355;32;38712;-88
2023/03/18 13:52:00;;;;;;;10.27;4.97;;;;;;;19.82;16.71;100059.00;7709499;32;37685;-87
2023/03/18 13:56:44;;;;;;;12.32;5.07;;;;;;;19.87;18.21;100058.84;7714264;32;39854;-86
2023/03/18 14:01:19;;;;;;;12.52;5.35;;;;;;;20.35;17.08;100053.34;7726730;32;40700;-86
2023/03/18 14:05:39;;;;;;;11.30;5.75;;;;;;;20.95;17.04;100043.16;7715861;32;37972;-87
2023/03/18 14:10:05;;;;;;;12.93;5.62;;;;;;;20.39;18.21;100046.03;7762864;32;37737;-84
2023/03/18 14:15:04;;;;;;;13.07;5.60;;;;;;;20.33;18.18;100039.81;7716538;32;40166;-86
2023/03/18 14:19:31;;;;;;;10.52;5.50;;;;;;;20.35;17.60;100034.78;7690274;32;39933;-87
2023/03/18 14:24:14;;;;;;;14.73;5.75;;;;;;;20.23;18.10;100029.94;7700073;32;38481;-86
2023/03/18 14:28:41;;;;;;;;;;;;;;;20.06;18.34;100030.81;7699962;32;37080;-87
2023/03/18 14:33:32;;;;;;;12.43;6.43;;;;;;;20.13;18.40;100024.78;7712694;32;39559;-87
2023/03/18 14:38:19;;;;;;;10.43;5.78;;;;;;;19.81;19.69;100021.41;7713165;32;39928;-86
2023/03/18 14:42:47;;;;;;;10.98;5.50;;;;;;;20.16;18.73;100018.59;7703115;32;38852;-85
2023/03/18 14:47:15;;;;;;;11.93;5.97;;;;;;;19.50;19.19;100016.87;7703383;32;37328;-86
2023/03/18 14:51:52;;;;;;;10.98;5.65;;;;;;;18.50;20.91;100020.44;7708319;32;39236;-87
2023/03/18 14:56:19;;;;;;;9.77;4.82;;;;;;;18.70;21.38;100024.56;7707010;32;39501;-86
2023/03/18 15:00:36;;;;;;;11.68;5.55;;;;;;;19.12;20.38;100014.75;7713385;32;37955;-84
2023/03/18 15:04:54;;;;;;;9.38;5.22;;;;;;;18.84;20.67;100014.22;7722521;32;37869;-84
2023/03/18 15:09:25;;;;;;;13.27;5.30;;;;;;;18.67;21.57;100008.62;7706844;32;39589;-85
2023/03/18 15:13:42;;;;;;;10.02;5.40;;;;;;;18.97;21.17;100011.66;7709476;32;40644;-85
2023/03/18 15:18:15;;;;;;;10.60;4.75;;;;;;;18.71;20.85;100017.91;7697970;32;37798;-85
2023/03/18 15:22:34;;;;;;;11.40;5.65;;;;;;;18.53;21.29;100006.81;7711838;32;37094;-83
2023/03/18 15:27:04;;;;;;;10.80;5.12;;;;;;;18.38;21.08;100013.59;7698020;32;40056;-86
2023/03/18 15:31:42;;;;;;;9.98;4.68;;;;;;;17.87;22.51;100009.44;7711022;32;40685;-86
2023/03/18 15:36:05;;;;;;;10.60;5.20;;;;;;;18.16;21.91;100005.34;7698374;32;37704;-83
2023/03/18 15:40:29;;;;;;;14.68;7.40;;;;;;;17.64;23.28;100020.47;7698555;32;37135;-85
2023/03/18 15:44:50;;;;;;;19.27;8.35;;;;;;;17.63;23.06;100023.53;7711684;32;40159;-84
2023/03/18 15:49:11;;;;;;;15.45;5.00;;;;;;;17.48;23.57;100024.69;7711655;32;40780;-84
2023/03/18 15:53:33;;;;;;;9.50;4.85;;;;;;;17.74;23.48;100027.63;7697943;32;37980;-84
2023/03/18 15:57:52;;;;;;;8.37;4.93;;;;;;;17.95;23.01;100025.19;7698553;32;37005;-85
2023/03/18 16:02:15;;;;;;;9.95;4.62;;;;;;;18.36;22.90;100026.06;7698421;32;39035;-84
2023/03/18 16:06:33;;;;;;;8.25;4.25;;;;;;;18.52;22.79;100023.69;7697871;32;38848;-86
2023/03/18 16:10:54;;;;;;;8.45;4.68;;;;;;;18.00;23.60;100035.28;7711129;32;38648;-84
2023/03/18 16:15:17;;;;;;;13.85;4.53;;;;;;;18.05;23.90;100026.09;7698338;32;37454;-88
2023/03/18 16:19:33;;;;;;;7.78;4.30;;;;;;;18.00;23.60;100030.59;7698189;32;40083;-87
2023/03/18 16:23:50;;;;;;;6.87;3.47;;;;;;;18.18;23.36;100025.19;7711421;32;40626;-84
2023/03/18 16:28:23;;;;;;;7.18;4.10;;;;;;;19.80;21.43;100016.22;7710909;32;38234;-85
2023/03/18 16:32:40;;;;;;;10.52;4.72;;;;;;;21.38;20.21;100022.63;7699107;32;37024;-85
2023/03/18 16:36:58;;;;;;;11.80;5.43;;;;;;;21.72;19.14;100029.03;7711143;32;40104;-85
2023/03/18 16:41:16;;;;;;;9.90;4.85;;;;;;;19.69;21.15;100024.00;7709974;32;41013;-85
2023/03/18 16:45:33;;;;;;;9.27;4.10;;;;;;;18.62;22.64;100039.97;7710876;32;37986;-85
2023/03/18 16:49:50;;;;;;;8.63;4.70;;;;;;;18.00;23.46;100041.63;7697300;32;36811;-85
2023/03/18 16:54:26;;;;;;;6.65;3.92;;;;;;;17.60;24.21;100043.44;7710716;32;39144;-85
2023/03/18 16:58:43;;;;;;;9.43;4.95;;;;;;;16.78;25.84;100037.81;7697255;32;39979;-83
2023/03/18 17:03:00;;;;;;;11.45;6.07;;;;;;;16.41;26.25;100047.88;7697043;32;38056;-84
2023/03/18 17:07:17;;;;;;;13.80;7.32;;;;;;;16.29;26.44;100047.56;7711075;32;36371;-84
2023/03/18 17:11:34;;;;;;;11.80;5.97;;;;;;;15.92;27.64;100049.34;7710500;32;39344;-83
2023/03/18 17:15:50;;;;;;;11.00;5.80;;;;;;;15.65;28.41;100053.59;7710291;32;40830;-83
2023/03/18 17:20:35;;;;;;;16.23;7.70;;;;;;;15.18;28.89;100055.41;7710359;32;37885;-80
2023/03/18 17:24:51;;;;;;;15.85;7.57;;;;;;;14.84;29.83;100059.12;7708535;32;37108;-81
2023/03/18 17:29:19;;;;;;;19.42;6.10;;;;;;;14.73;29.26;100061.19;7709962;32;40261;-82
2023/03/18 17:33:36;;;;;;;9.88;4.68;;;;;;;14.49;29.79;100060.31;7697539;32;40876;-81
2023/03/18 17:37:53;;;;;;;18.15;5.70;;;;;;;14.14;30.72;100065.06;7709914;32;37952;-82
2023/03/18 17:42:28;;;;;;;10.05;4.90;;;;;;;14.25;30.67;100070.16;7709842;32;38028;-82
2023/03/18 17:46:45;;;;;;;9.05;4.90;;;;;;;13.97;30.97;100074.56;7697471;32;40214;-82
2023/03/18 17:51:18;;;;;;;9.70;4.20;;;;;;;13.87;31.28;100072.72;7709875;32;40038;-82
2023/03/18 17:55:34;;;;;;;12.52;4.65;;;;;;;13.85;31.06;100077.66;7700609;32;38434;-81
2023/03/18 17:59:51;;;;;;;9.02;4.70;;;;;;;13.55;31.53;100080.63;7713006;32;37332;-81
2023/03/18 18:04:13;;;;;;;11.73;5.90;;;;;;;13.41;31.98;100083.19;7712992;32;39357;-81
2023/03/18 18:08:30;;;;;;;13.05;5.85;;;;;;;13.34;32.25;100084.31;7713280;32;39797;-80
2023/03/18 18:12:48;;;;;;;24.25;7.90;;;;;;;13.45;32.03;100093.31;7712867;32;38837;-81
2023/03/18 18:17:11;;;;;;;9.40;4.68;;;;;;;13.07;32.71;100092.94;7712606;32;37911;-82
2023/03/18 18:21:30;;;;;;;13.70;4.90;;;;;;;13.03;32.68;100097.31;7699769;32;39273;-82
2023/03/18 18:25:48;;;;;;;8.40;4.45;;;;;;;12.88;33.08;100089.16;7712657;32;40146;-81
2023/03/18 18:30:05;;;;;;;11.40;4.97;;;;;;;12.98;32.89;100091.84;7712447;32;37677;-81
2023/03/18 18:34:21;;;;;;;11.43;4.62;;;;;;;12.64;33.47;100100.75;7712458;32;37962;-81
2023/03/18 18:38:37;;;;;;;8.23;4.65;;;;;;;12.67;33.40;100099.38;7717648;32;39343;-83
2023/03/18 18:42:54;;;;;;;9.52;4.85;;;;;;;12.58;33.57;100099.94;7733769;32;39961;-82
2023/03/18 18:47:17;;;;;;;10.25;4.68;;;;;;;12.54;33.66;100087.09;7712489;32;38199;-81
2023/03/18 18:51:34;;;;;;;11.73;5.70;;;;;;;12.22;34.38;100090.97;7715488;32;37172;-81
2023/03/18 18:55:52;;;;;;;10.90;6.32;;;;;;;12.26;34.38;100094.78;7739151;32;39952;-81
2023/03/18 19:00:22;;;;;;;9.55;5.82;;;;;;;12.21;34.68;100100.25;7727857;32;38986;-83
2023/03/18 19:04:40;;;;;;;14.00;6.18;;;;;;;11.86;35.21;100093.69;7738725;32;37899;-81
2023/03/18 19:08:58;;;;;;;10.60;5.90;;;;;;;11.75;35.50;100106.53;7738520;32;37362;-82
2023/03/18 19:13:18;;;;;;;10.38;6.18;;;;;;;11.96;35.27;100101.13;7725756;32;38333;-82
2023/03/18 19:17:42;;;;;;;16.40;6.00;;;;;;;11.59;36.08;100108.44;7723453;32;39935;-81
2023/03/18 19:22:10;;;;;;;13.35;6.32;;;;;;;11.70;35.83;100108.44;7711940;32;38682;-81
2023/03/18 19:26:26;;;;;;;15.88;7.32;;;;;;;11.46;36.05;100098.03;7723834;32;37108;-84
2023/03/18 19:30:43;;;;;;;16.77;7.55;;;;;;;11.35;36.66;100102.66;7733326;32;39384;-81
2023/03/18 19:35:00;;;;;;;13.05;7.20;;;;;;;11.40;36.62;100104.56;7711952;32;40749;-82
2023/03/18 19:39:18;;;;;;;16.90;7.62;;;;;;;11.22;36.99;100109.44;7711792;32;37679;-81
2023/03/18 19:43:35;;;;;;;13.65;7.53;;;;;;;11.12;37.34;100109.38;7720984;32;36099;-81
2023/03/18 19:47:51;;;;;;;13.05;6.80;;;;;;;10.90;37.76;100118.59;7736856;32;39731;-82
2023/03/18 19:52:24;;;;;;;32.65;11.98;;;;;;;11.06;37.51;100121.38;7729049;32;40749;-82
2023/03/18 19:56:43;;;;;;;13.43;7.35;;;;;;;10.96;37.73;100116.69;7713588;32;37963;-81
2023/03/18 20:01:02;;;;;;;19.55;9.25;;;;;;;10.89;37.88;100116.13;7724569;32;37071;-83
2023/03/18 20:05:25;;;;;;;15.05;7.32;;;;;;;10.64;38.39;100108.63;7738350;32;39425;-84
2023/03/18 20:09:41;;;;;;;22.17;8.75;;;;;;;10.55;38.69;100113.75;7716941;32;39887;-84